sensor_id;sensor_type;location;lat;lon;timestamp;P1;durP1;ratioP1;P2;durP2;ratioP2
10275;SDS011;5183;51.190;6.820;2024-03-08T00:01:57;27.87;;;22.27;;
10275;SDS011;5183;51.190;6.820;2024-03-08T00:04:24;25.83;;;21.37;;
10275;SDS011;5183;51.190;6.820;2024-03-08T00:06:51;28.23;;;22.23;;
10275;SDS011;5183;51.190;6.820;2024-03-08T00:09:18;25.77;;;21.70;;
10275;SDS011;5183;51.190;6.820;2024-03-08T00:11:46;25.73;;;21.33;;
10275;SDS011;5183;51.190;6.820;2024-03-08T00:14:15;26.40;;;21.87;;
10275;SDS011;5183;51.190;6.820;2024-03-08T00:16:43;28.33;;;22.43;;
10275;SDS011;5183;51.190;6.820;2024-03-08T00:19:10;26.43;;;22.17;;
10275;SDS011;5183;51.190;6.820;2024-03-08T00:21:37;27.83;;;23.00;;
10275;SDS011;5183;51.190;6.820;2024-03-08T00:24:03;27.97;;;22.13;;
10275;SDS011;5183;51.190;6.820;2024-03-08T00:26:31;28.90;;;22.50;;
10275;SDS011;5183;51.190;6.820;2024-03-08T00:28:59;28.40;;;22.83;;
10275;SDS011;5183;51.190;6.820;2024-03-08T00:31:26;29.00;;;23.00;;
10275;SDS011;5183;51.190;6.820;2024-03-08T00:33:54;27.30;;;22.37;;
10275;SDS011;5183;51.190;6.820;2024-03-08T00:36:21;28.00;;;22.57;;
10275;SDS011;5183;51.190;6.820;2024-03-08T00:38:50;26.77;;;22.73;;
10275;SDS011;5183;51.190;6.820;2024-03-08T00:41:16;28.73;;;22.63;;
10275;SDS011;5183;51.190;6.820;2024-03-08T00:43:43;27.37;;;22.63;;
10275;SDS011;5183;51.190;6.820;2024-03-08T00:46:12;27.83;;;22.43;;
10275;SDS011;5183;51.190;6.820;2024-03-08T00:48:40;26.23;;;21.67;;
10275;SDS011;5183;51.190;6.820;2024-03-08T00:51:09;26.90;;;22.67;;
10275;SDS011;5183;51.190;6.820;2024-03-08T00:53:36;26.60;;;21.97;;
10275;SDS011;5183;51.190;6.820;2024-03-08T00:56:03;29.77;;;23.30;;
10275;SDS011;5183;51.190;6.820;2024-03-08T00:58:30;29.43;;;23.93;;
10275;SDS011;5183;51.190;6.820;2024-03-08T01:00:57;26.60;;;23.00;;
10275;SDS011;5183;51.190;6.820;2024-03-08T01:03:24;28.07;;;23.17;;
10275;SDS011;5183;51.190;6.820;2024-03-08T01:05:51;29.60;;;23.53;;
10275;SDS011;5183;51.190;6.820;2024-03-08T01:08:20;28.57;;;22.90;;
10275;SDS011;5183;51.190;6.820;2024-03-08T01:10:48;29.23;;;23.37;;
10275;SDS011;5183;51.190;6.820;2024-03-08T01:13:15;29.20;;;23.87;;
10275;SDS011;5183;51.190;6.820;2024-03-08T01:15:42;30.20;;;24.23;;
10275;SDS011;5183;51.190;6.820;2024-03-08T01:18:09;27.97;;;23.10;;
10275;SDS011;5183;51.190;6.820;2024-03-08T01:20:36;32.13;;;23.87;;
10275;SDS011;5183;51.190;6.820;2024-03-08T01:23:03;29.30;;;23.50;;
10275;SDS011;5183;51.190;6.820;2024-03-08T01:25:33;28.83;;;23.30;;
10275;SDS011;5183;51.190;6.820;2024-03-08T01:28:00;30.87;;;23.90;;
10275;SDS011;5183;51.190;6.820;2024-03-08T01:30:27;30.77;;;23.80;;
10275;SDS011;5183;51.190;6.820;2024-03-08T01:32:54;28.67;;;23.63;;
10275;SDS011;5183;51.190;6.820;2024-03-08T01:35:21;30.77;;;24.20;;
10275;SDS011;5183;51.190;6.820;2024-03-08T01:37:48;29.03;;;23.57;;
10275;SDS011;5183;51.190;6.820;2024-03-08T01:40:15;31.57;;;24.10;;
10275;SDS011;5183;51.190;6.820;2024-03-08T01:42:44;29.67;;;24.27;;
10275;SDS011;5183;51.190;6.820;2024-03-08T01:45:11;29.87;;;25.10;;
10275;SDS011;5183;51.190;6.820;2024-03-08T01:47:38;29.23;;;23.53;;
10275;SDS011;5183;51.190;6.820;2024-03-08T01:50:05;29.13;;;23.30;;
10275;SDS011;5183;51.190;6.820;2024-03-08T01:52:33;30.47;;;23.67;;
10275;SDS011;5183;51.190;6.820;2024-03-08T01:55:01;29.87;;;23.60;;
10275;SDS011;5183;51.190;6.820;2024-03-08T01:57:32;31.00;;;23.93;;
10275;SDS011;5183;51.190;6.820;2024-03-08T02:00:01;30.27;;;23.90;;
10275;SDS011;5183;51.190;6.820;2024-03-08T02:02:31;31.17;;;24.10;;
10275;SDS011;5183;51.190;6.820;2024-03-08T02:04:59;29.83;;;23.43;;
10275;SDS011;5183;51.190;6.820;2024-03-08T02:07:28;30.93;;;23.20;;
10275;SDS011;5183;51.190;6.820;2024-03-08T02:09:55;31.93;;;24.17;;
10275;SDS011;5183;51.190;6.820;2024-03-08T02:12:21;32.10;;;23.73;;
10275;SDS011;5183;51.190;6.820;2024-03-08T02:14:48;33.07;;;24.13;;
10275;SDS011;5183;51.190;6.820;2024-03-08T02:17:16;32.37;;;24.07;;
10275;SDS011;5183;51.190;6.820;2024-03-08T02:19:43;31.93;;;24.30;;
10275;SDS011;5183;51.190;6.820;2024-03-08T02:22:11;31.30;;;24.87;;
10275;SDS011;5183;51.190;6.820;2024-03-08T02:24:38;31.17;;;24.07;;
10275;SDS011;5183;51.190;6.820;2024-03-08T02:27:06;31.93;;;24.73;;
10275;SDS011;5183;51.190;6.820;2024-03-08T02:29:33;29.33;;;24.00;;
10275;SDS011;5183;51.190;6.820;2024-03-08T02:32:00;32.40;;;24.60;;
10275;SDS011;5183;51.190;6.820;2024-03-08T02:34:28;32.77;;;24.73;;
10275;SDS011;5183;51.190;6.820;2024-03-08T02:36:56;33.03;;;24.97;;
10275;SDS011;5183;51.190;6.820;2024-03-08T02:39:24;31.47;;;24.40;;
10275;SDS011;5183;51.190;6.820;2024-03-08T02:41:52;32.90;;;25.27;;
10275;SDS011;5183;51.190;6.820;2024-03-08T02:44:19;31.33;;;24.53;;
10275;SDS011;5183;51.190;6.820;2024-03-08T02:46:46;32.53;;;25.20;;
10275;SDS011;5183;51.190;6.820;2024-03-08T02:49:13;32.60;;;25.70;;
10275;SDS011;5183;51.190;6.820;2024-03-08T02:51:41;33.17;;;25.37;;
10275;SDS011;5183;51.190;6.820;2024-03-08T02:54:08;32.40;;;25.27;;
10275;SDS011;5183;51.190;6.820;2024-03-08T02:56:36;33.70;;;25.70;;
10275;SDS011;5183;51.190;6.820;2024-03-08T02:59:03;35.07;;;25.30;;
10275;SDS011;5183;51.190;6.820;2024-03-08T03:01:30;33.63;;;25.93;;
10275;SDS011;5183;51.190;6.820;2024-03-08T03:03:57;32.07;;;24.90;;
10275;SDS011;5183;51.190;6.820;2024-03-08T03:06:23;33.00;;;25.33;;
10275;SDS011;5183;51.190;6.820;2024-03-08T03:08:51;32.00;;;24.17;;
10275;SDS011;5183;51.190;6.820;2024-03-08T03:11:17;33.40;;;25.60;;
10275;SDS011;5183;51.190;6.820;2024-03-08T03:13:46;32.17;;;25.07;;
10275;SDS011;5183;51.190;6.820;2024-03-08T03:16:16;35.53;;;26.23;;
10275;SDS011;5183;51.190;6.820;2024-03-08T03:18:44;36.60;;;25.53;;
10275;SDS011;5183;51.190;6.820;2024-03-08T03:21:11;32.17;;;25.17;;
10275;SDS011;5183;51.190;6.820;2024-03-08T03:23:38;31.83;;;24.10;;
10275;SDS011;5183;51.190;6.820;2024-03-08T03:26:06;31.10;;;24.63;;
10275;SDS011;5183;51.190;6.820;2024-03-08T03:28:33;33.57;;;25.53;;
10275;SDS011;5183;51.190;6.820;2024-03-08T03:31:01;34.63;;;25.43;;
10275;SDS011;5183;51.190;6.820;2024-03-08T03:33:28;30.87;;;24.60;;
10275;SDS011;5183;51.190;6.820;2024-03-08T03:35:55;32.27;;;24.43;;
10275;SDS011;5183;51.190;6.820;2024-03-08T03:38:22;35.10;;;25.57;;
10275;SDS011;5183;51.190;6.820;2024-03-08T03:40:51;31.57;;;24.40;;
10275;SDS011;5183;51.190;6.820;2024-03-08T03:43:21;35.70;;;25.57;;
10275;SDS011;5183;51.190;6.820;2024-03-08T03:45:48;32.10;;;25.90;;
10275;SDS011;5183;51.190;6.820;2024-03-08T03:48:16;35.80;;;26.03;;
10275;SDS011;5183;51.190;6.820;2024-03-08T03:50:43;31.13;;;24.27;;
10275;SDS011;5183;51.190;6.820;2024-03-08T03:53:10;33.33;;;25.43;;
10275;SDS011;5183;51.190;6.820;2024-03-08T03:55:38;34.87;;;25.83;;
10275;SDS011;5183;51.190;6.820;2024-03-08T03:58:05;32.63;;;25.27;;
10275;SDS011;5183;51.190;6.820;2024-03-08T04:00:32;32.43;;;25.53;;
10275;SDS011;5183;51.190;6.820;2024-03-08T04:02:58;34.67;;;25.43;;
10275;SDS011;5183;51.190;6.820;2024-03-08T04:05:27;33.20;;;24.10;;
10275;SDS011;5183;51.190;6.820;2024-03-08T04:07:54;31.23;;;24.97;;
10275;SDS011;5183;51.190;6.820;2024-03-08T04:10:21;32.17;;;23.93;;
10275;SDS011;5183;51.190;6.820;2024-03-08T04:12:47;31.57;;;23.97;;
10275;SDS011;5183;51.190;6.820;2024-03-08T04:15:14;30.20;;;23.50;;
10275;SDS011;5183;51.190;6.820;2024-03-08T04:17:41;31.43;;;23.73;;
10275;SDS011;5183;51.190;6.820;2024-03-08T04:20:11;32.03;;;24.30;;
10275;SDS011;5183;51.190;6.820;2024-03-08T04:22:40;31.03;;;23.97;;
10275;SDS011;5183;51.190;6.820;2024-03-08T04:25:08;30.70;;;23.27;;
10275;SDS011;5183;51.190;6.820;2024-03-08T04:27:35;34.23;;;24.23;;
10275;SDS011;5183;51.190;6.820;2024-03-08T04:30:02;33.93;;;25.53;;
10275;SDS011;5183;51.190;6.820;2024-03-08T04:32:32;32.23;;;23.83;;
10275;SDS011;5183;51.190;6.820;2024-03-08T04:34:59;34.73;;;24.60;;
10275;SDS011;5183;51.190;6.820;2024-03-08T04:37:26;31.47;;;24.60;;
10275;SDS011;5183;51.190;6.820;2024-03-08T04:39:56;33.57;;;24.67;;
10275;SDS011;5183;51.190;6.820;2024-03-08T04:42:22;32.43;;;25.20;;
10275;SDS011;5183;51.190;6.820;2024-03-08T04:44:50;36.43;;;26.47;;
10275;SDS011;5183;51.190;6.820;2024-03-08T04:47:18;32.07;;;24.33;;
10275;SDS011;5183;51.190;6.820;2024-03-08T04:49:45;35.13;;;25.10;;
10275;SDS011;5183;51.190;6.820;2024-03-08T04:52:12;31.93;;;24.07;;
10275;SDS011;5183;51.190;6.820;2024-03-08T04:54:39;36.93;;;25.37;;
10275;SDS011;5183;51.190;6.820;2024-03-08T04:57:07;34.83;;;24.67;;
10275;SDS011;5183;51.190;6.820;2024-03-08T04:59:34;35.77;;;26.23;;
10275;SDS011;5183;51.190;6.820;2024-03-08T05:02:01;35.30;;;25.37;;
10275;SDS011;5183;51.190;6.820;2024-03-08T05:04:28;31.03;;;23.87;;
10275;SDS011;5183;51.190;6.820;2024-03-08T05:06:55;33.07;;;24.97;;
10275;SDS011;5183;51.190;6.820;2024-03-08T05:09:22;33.90;;;24.93;;
10275;SDS011;5183;51.190;6.820;2024-03-08T05:11:49;33.13;;;25.80;;
10275;SDS011;5183;51.190;6.820;2024-03-08T05:14:17;36.07;;;25.27;;
10275;SDS011;5183;51.190;6.820;2024-03-08T05:16:45;32.70;;;24.07;;
10275;SDS011;5183;51.190;6.820;2024-03-08T05:19:13;35.03;;;25.37;;
10275;SDS011;5183;51.190;6.820;2024-03-08T05:21:41;35.20;;;25.20;;
10275;SDS011;5183;51.190;6.820;2024-03-08T05:24:08;36.17;;;25.97;;
10275;SDS011;5183;51.190;6.820;2024-03-08T05:26:36;37.30;;;26.00;;
10275;SDS011;5183;51.190;6.820;2024-03-08T05:29:03;38.47;;;26.63;;
10275;SDS011;5183;51.190;6.820;2024-03-08T05:31:31;35.03;;;25.20;;
10275;SDS011;5183;51.190;6.820;2024-03-08T05:34:04;36.77;;;26.57;;
10275;SDS011;5183;51.190;6.820;2024-03-08T05:36:35;36.83;;;26.60;;
10275;SDS011;5183;51.190;6.820;2024-03-08T05:39:02;34.40;;;25.80;;
10275;SDS011;5183;51.190;6.820;2024-03-08T05:41:31;34.50;;;24.63;;
10275;SDS011;5183;51.190;6.820;2024-03-08T05:43:58;35.57;;;25.47;;
10275;SDS011;5183;51.190;6.820;2024-03-08T05:46:24;34.90;;;26.47;;
10275;SDS011;5183;51.190;6.820;2024-03-08T05:48:53;33.17;;;25.30;;
10275;SDS011;5183;51.190;6.820;2024-03-08T05:51:20;37.03;;;26.53;;
10275;SDS011;5183;51.190;6.820;2024-03-08T05:53:47;35.30;;;25.70;;
10275;SDS011;5183;51.190;6.820;2024-03-08T05:56:13;35.77;;;26.17;;
10275;SDS011;5183;51.190;6.820;2024-03-08T05:58:40;36.00;;;26.00;;
10275;SDS011;5183;51.190;6.820;2024-03-08T06:01:07;35.33;;;27.00;;
10275;SDS011;5183;51.190;6.820;2024-03-08T06:03:37;36.83;;;26.07;;
10275;SDS011;5183;51.190;6.820;2024-03-08T06:06:11;35.73;;;25.90;;
10275;SDS011;5183;51.190;6.820;2024-03-08T06:08:38;35.60;;;25.60;;
10275;SDS011;5183;51.190;6.820;2024-03-08T06:11:05;35.20;;;25.63;;
10275;SDS011;5183;51.190;6.820;2024-03-08T06:13:32;37.93;;;26.70;;
10275;SDS011;5183;51.190;6.820;2024-03-08T06:15:59;38.42;;;28.33;;
10275;SDS011;5183;51.190;6.820;2024-03-08T06:18:28;38.47;;;27.80;;
10275;SDS011;5183;51.190;6.820;2024-03-08T06:20:55;36.67;;;25.57;;
10275;SDS011;5183;51.190;6.820;2024-03-08T06:23:24;37.73;;;26.77;;
10275;SDS011;5183;51.190;6.820;2024-03-08T06:25:52;40.37;;;28.70;;
10275;SDS011;5183;51.190;6.820;2024-03-08T06:28:19;37.73;;;27.10;;
10275;SDS011;5183;51.190;6.820;2024-03-08T06:30:46;36.47;;;26.93;;
10275;SDS011;5183;51.190;6.820;2024-03-08T06:33:13;35.10;;;26.03;;
10275;SDS011;5183;51.190;6.820;2024-03-08T06:35:41;35.67;;;26.10;;
10275;SDS011;5183;51.190;6.820;2024-03-08T06:38:08;35.80;;;26.07;;
10275;SDS011;5183;51.190;6.820;2024-03-08T06:40:37;33.57;;;24.90;;
10275;SDS011;5183;51.190;6.820;2024-03-08T06:43:05;35.53;;;25.93;;
10275;SDS011;5183;51.190;6.820;2024-03-08T06:45:32;35.00;;;24.93;;
10275;SDS011;5183;51.190;6.820;2024-03-08T06:48:02;34.27;;;24.73;;
10275;SDS011;5183;51.190;6.820;2024-03-08T06:50:31;33.63;;;25.53;;
10275;SDS011;5183;51.190;6.820;2024-03-08T06:52:58;34.97;;;25.37;;
10275;SDS011;5183;51.190;6.820;2024-03-08T06:55:25;35.57;;;25.97;;
10275;SDS011;5183;51.190;6.820;2024-03-08T06:57:53;33.97;;;24.23;;
10275;SDS011;5183;51.190;6.820;2024-03-08T07:00:20;35.60;;;24.83;;
10275;SDS011;5183;51.190;6.820;2024-03-08T07:02:51;32.33;;;24.27;;
10275;SDS011;5183;51.190;6.820;2024-03-08T07:05:19;31.80;;;23.80;;
10275;SDS011;5183;51.190;6.820;2024-03-08T07:07:46;33.50;;;24.50;;
10275;SDS011;5183;51.190;6.820;2024-03-08T07:10:14;29.73;;;23.30;;
10275;SDS011;5183;51.190;6.820;2024-03-08T07:12:41;32.97;;;23.33;;
10275;SDS011;5183;51.190;6.820;2024-03-08T07:15:10;34.53;;;25.50;;
10275;SDS011;5183;51.190;6.820;2024-03-08T07:17:40;32.63;;;23.33;;
10275;SDS011;5183;51.190;6.820;2024-03-08T07:20:09;32.70;;;24.43;;
10275;SDS011;5183;51.190;6.820;2024-03-08T07:22:38;34.87;;;24.83;;
10275;SDS011;5183;51.190;6.820;2024-03-08T07:25:05;36.20;;;24.83;;
10275;SDS011;5183;51.190;6.820;2024-03-08T07:27:45;33.57;;;24.73;;
10275;SDS011;5183;51.190;6.820;2024-03-08T07:30:14;31.37;;;23.27;;
10275;SDS011;5183;51.190;6.820;2024-03-08T07:33:02;34.13;;;24.97;;
10275;SDS011;5183;51.190;6.820;2024-03-08T07:35:29;32.13;;;24.13;;
10275;SDS011;5183;51.190;6.820;2024-03-08T07:37:56;33.90;;;25.07;;
10275;SDS011;5183;51.190;6.820;2024-03-08T07:40:25;32.43;;;24.47;;
10275;SDS011;5183;51.190;6.820;2024-03-08T07:42:52;31.57;;;23.13;;
10275;SDS011;5183;51.190;6.820;2024-03-08T07:45:20;36.13;;;24.63;;
10275;SDS011;5183;51.190;6.820;2024-03-08T07:47:48;32.80;;;24.23;;
10275;SDS011;5183;51.190;6.820;2024-03-08T07:50:16;32.87;;;24.23;;
10275;SDS011;5183;51.190;6.820;2024-03-08T07:52:44;30.60;;;22.93;;
10275;SDS011;5183;51.190;6.820;2024-03-08T07:55:11;32.07;;;24.17;;
10275;SDS011;5183;51.190;6.820;2024-03-08T07:57:38;30.57;;;23.60;;
10275;SDS011;5183;51.190;6.820;2024-03-08T08:00:05;33.40;;;24.67;;
10275;SDS011;5183;51.190;6.820;2024-03-08T08:02:34;31.10;;;22.63;;
10275;SDS011;5183;51.190;6.820;2024-03-08T08:05:01;30.00;;;22.70;;
10275;SDS011;5183;51.190;6.820;2024-03-08T08:07:29;30.33;;;22.77;;
10275;SDS011;5183;51.190;6.820;2024-03-08T08:09:55;32.57;;;23.80;;
10275;SDS011;5183;51.190;6.820;2024-03-08T08:12:22;31.03;;;22.87;;
10275;SDS011;5183;51.190;6.820;2024-03-08T08:14:49;30.43;;;22.87;;
10275;SDS011;5183;51.190;6.820;2024-03-08T08:17:16;29.13;;;21.80;;
10275;SDS011;5183;51.190;6.820;2024-03-08T08:19:44;29.77;;;21.30;;
10275;SDS011;5183;51.190;6.820;2024-03-08T08:22:11;29.10;;;20.90;;
10275;SDS011;5183;51.190;6.820;2024-03-08T08:24:38;28.47;;;21.43;;
10275;SDS011;5183;51.190;6.820;2024-03-08T08:27:05;29.27;;;20.90;;
10275;SDS011;5183;51.190;6.820;2024-03-08T08:29:32;29.00;;;20.50;;
10275;SDS011;5183;51.190;6.820;2024-03-08T08:32:00;27.77;;;19.67;;
10275;SDS011;5183;51.190;6.820;2024-03-08T08:34:27;27.23;;;19.70;;
10275;SDS011;5183;51.190;6.820;2024-03-08T08:36:56;24.83;;;18.83;;
10275;SDS011;5183;51.190;6.820;2024-03-08T08:39:23;25.50;;;20.27;;
10275;SDS011;5183;51.190;6.820;2024-03-08T08:41:50;25.23;;;19.70;;
10275;SDS011;5183;51.190;6.820;2024-03-08T08:44:17;23.47;;;18.33;;
10275;SDS011;5183;51.190;6.820;2024-03-08T08:46:44;23.23;;;17.23;;
10275;SDS011;5183;51.190;6.820;2024-03-08T08:49:11;24.10;;;18.50;;
10275;SDS011;5183;51.190;6.820;2024-03-08T08:51:39;23.27;;;17.80;;
10275;SDS011;5183;51.190;6.820;2024-03-08T08:54:07;27.10;;;19.23;;
10275;SDS011;5183;51.190;6.820;2024-03-08T08:56:34;25.73;;;19.03;;
10275;SDS011;5183;51.190;6.820;2024-03-08T08:59:02;22.87;;;17.63;;
10275;SDS011;5183;51.190;6.820;2024-03-08T09:01:29;22.93;;;17.47;;
10275;SDS011;5183;51.190;6.820;2024-03-08T09:03:56;24.00;;;18.03;;
10275;SDS011;5183;51.190;6.820;2024-03-08T09:06:23;25.87;;;18.33;;
10275;SDS011;5183;51.190;6.820;2024-03-08T09:08:50;24.40;;;18.07;;
10275;SDS011;5183;51.190;6.820;2024-03-08T09:11:19;20.27;;;16.90;;
10275;SDS011;5183;51.190;6.820;2024-03-08T09:13:46;22.93;;;17.30;;
10275;SDS011;5183;51.190;6.820;2024-03-08T09:16:14;24.30;;;17.60;;
10275;SDS011;5183;51.190;6.820;2024-03-08T09:18:41;22.80;;;17.63;;
10275;SDS011;5183;51.190;6.820;2024-03-08T09:21:07;22.97;;;16.90;;
10275;SDS011;5183;51.190;6.820;2024-03-08T09:23:35;23.53;;;17.13;;
10275;SDS011;5183;51.190;6.820;2024-03-08T09:26:02;23.83;;;17.73;;
10275;SDS011;5183;51.190;6.820;2024-03-08T09:28:30;21.73;;;16.83;;
10275;SDS011;5183;51.190;6.820;2024-03-08T09:30:57;20.93;;;16.87;;
10275;SDS011;5183;51.190;6.820;2024-03-08T09:33:25;19.20;;;16.00;;
10275;SDS011;5183;51.190;6.820;2024-03-08T09:35:54;19.80;;;16.27;;
10275;SDS011;5183;51.190;6.820;2024-03-08T09:38:22;21.67;;;16.70;;
10275;SDS011;5183;51.190;6.820;2024-03-08T09:40:50;22.97;;;17.77;;
10275;SDS011;5183;51.190;6.820;2024-03-08T09:43:18;21.70;;;16.50;;
10275;SDS011;5183;51.190;6.820;2024-03-08T09:45:46;23.87;;;17.13;;
10275;SDS011;5183;51.190;6.820;2024-03-08T09:48:16;21.63;;;17.23;;
10275;SDS011;5183;51.190;6.820;2024-03-08T09:50:45;23.50;;;16.67;;
10275;SDS011;5183;51.190;6.820;2024-03-08T09:53:13;20.60;;;15.80;;
10275;SDS011;5183;51.190;6.820;2024-03-08T09:55:40;21.23;;;16.17;;
10275;SDS011;5183;51.190;6.820;2024-03-08T09:58:10;20.97;;;15.73;;
10275;SDS011;5183;51.190;6.820;2024-03-08T10:00:59;20.27;;;16.13;;
10275;SDS011;5183;51.190;6.820;2024-03-08T10:03:27;22.43;;;16.87;;
10275;SDS011;5183;51.190;6.820;2024-03-08T10:05:55;23.10;;;17.33;;
10275;SDS011;5183;51.190;6.820;2024-03-08T10:08:25;21.10;;;16.47;;
10275;SDS011;5183;51.190;6.820;2024-03-08T10:10:52;19.60;;;15.93;;
10275;SDS011;5183;51.190;6.820;2024-03-08T10:13:19;21.70;;;16.47;;
10275;SDS011;5183;51.190;6.820;2024-03-08T10:15:46;20.80;;;15.83;;
10275;SDS011;5183;51.190;6.820;2024-03-08T10:18:15;19.80;;;15.10;;
10275;SDS011;5183;51.190;6.820;2024-03-08T10:20:42;18.83;;;15.23;;
10275;SDS011;5183;51.190;6.820;2024-03-08T10:23:09;17.47;;;14.70;;
10275;SDS011;5183;51.190;6.820;2024-03-08T10:25:36;18.13;;;14.77;;
10275;SDS011;5183;51.190;6.820;2024-03-08T10:28:04;18.87;;;15.53;;
10275;SDS011;5183;51.190;6.820;2024-03-08T10:30:31;19.40;;;15.53;;
10275;SDS011;5183;51.190;6.820;2024-03-08T10:32:58;18.67;;;14.60;;
10275;SDS011;5183;51.190;6.820;2024-03-08T10:35:27;21.33;;;14.57;;
10275;SDS011;5183;51.190;6.820;2024-03-08T10:37:54;19.57;;;14.60;;
10275;SDS011;5183;51.190;6.820;2024-03-08T10:40:25;16.80;;;13.77;;
10275;SDS011;5183;51.190;6.820;2024-03-08T10:42:53;16.53;;;13.27;;
10275;SDS011;5183;51.190;6.820;2024-03-08T10:45:30;17.47;;;13.57;;
10275;SDS011;5183;51.190;6.820;2024-03-08T10:48:04;18.50;;;13.40;;
10275;SDS011;5183;51.190;6.820;2024-03-08T10:50:43;17.60;;;13.57;;
10275;SDS011;5183;51.190;6.820;2024-03-08T10:53:11;16.67;;;12.43;;
10275;SDS011;5183;51.190;6.820;2024-03-08T10:55:40;14.47;;;12.07;;
10275;SDS011;5183;51.190;6.820;2024-03-08T10:58:08;15.33;;;11.63;;
10275;SDS011;5183;51.190;6.820;2024-03-08T11:00:35;14.90;;;11.83;;
10275;SDS011;5183;51.190;6.820;2024-03-08T11:03:03;13.43;;;11.57;;
10275;SDS011;5183;51.190;6.820;2024-03-08T11:05:36;14.87;;;11.97;;
10275;SDS011;5183;51.190;6.820;2024-03-08T11:08:08;14.43;;;12.23;;
10275;SDS011;5183;51.190;6.820;2024-03-08T11:10:48;14.73;;;12.77;;
10275;SDS011;5183;51.190;6.820;2024-03-08T11:13:32;15.93;;;12.00;;
10275;SDS011;5183;51.190;6.820;2024-03-08T11:16:00;14.00;;;12.00;;
10275;SDS011;5183;51.190;6.820;2024-03-08T11:18:31;13.67;;;11.50;;
10275;SDS011;5183;51.190;6.820;2024-03-08T11:21:00;15.67;;;11.57;;
10275;SDS011;5183;51.190;6.820;2024-03-08T11:23:32;14.47;;;11.10;;
10275;SDS011;5183;51.190;6.820;2024-03-08T11:25:59;16.27;;;11.37;;
10275;SDS011;5183;51.190;6.820;2024-03-08T11:28:29;13.77;;;10.93;;
10275;SDS011;5183;51.190;6.820;2024-03-08T11:33:50;12.87;;;10.00;;
10275;SDS011;5183;51.190;6.820;2024-03-08T11:36:20;12.37;;;10.40;;
10275;SDS011;5183;51.190;6.820;2024-03-08T11:38:49;13.33;;;10.93;;
10275;SDS011;5183;51.190;6.820;2024-03-08T11:41:18;12.43;;;10.27;;
10275;SDS011;5183;51.190;6.820;2024-03-08T11:43:46;12.67;;;10.33;;
10275;SDS011;5183;51.190;6.820;2024-03-08T11:46:13;13.33;;;10.73;;
10275;SDS011;5183;51.190;6.820;2024-03-08T11:48:41;14.10;;;10.53;;
10275;SDS011;5183;51.190;6.820;2024-03-08T11:51:09;12.57;;;10.50;;
10275;SDS011;5183;51.190;6.820;2024-03-08T11:53:38;14.50;;;11.13;;
10275;SDS011;5183;51.190;6.820;2024-03-08T11:56:07;12.23;;;10.77;;
10275;SDS011;5183;51.190;6.820;2024-03-08T11:58:35;14.33;;;10.50;;
10275;SDS011;5183;51.190;6.820;2024-03-08T12:01:03;15.57;;;11.40;;
10275;SDS011;5183;51.190;6.820;2024-03-08T12:03:31;13.07;;;10.47;;
10275;SDS011;5183;51.190;6.820;2024-03-08T12:05:58;15.43;;;10.73;;
10275;SDS011;5183;51.190;6.820;2024-03-08T12:08:26;11.77;;;10.33;;
10275;SDS011;5183;51.190;6.820;2024-03-08T12:10:54;12.87;;;10.43;;
10275;SDS011;5183;51.190;6.820;2024-03-08T12:13:26;12.07;;;10.50;;
10275;SDS011;5183;51.190;6.820;2024-03-08T12:15:55;14.83;;;10.73;;
10275;SDS011;5183;51.190;6.820;2024-03-08T12:18:23;12.93;;;10.43;;
10275;SDS011;5183;51.190;6.820;2024-03-08T12:20:54;12.67;;;9.90;;
10275;SDS011;5183;51.190;6.820;2024-03-08T12:23:32;11.57;;;9.77;;
10275;SDS011;5183;51.190;6.820;2024-03-08T12:26:08;11.10;;;9.63;;
10275;SDS011;5183;51.190;6.820;2024-03-08T12:28:40;13.33;;;10.67;;
10275;SDS011;5183;51.190;6.820;2024-03-08T12:31:09;12.77;;;10.60;;
10275;SDS011;5183;51.190;6.820;2024-03-08T12:33:46;16.37;;;12.07;;
10275;SDS011;5183;51.190;6.820;2024-03-08T12:36:14;14.33;;;11.50;;
10275;SDS011;5183;51.190;6.820;2024-03-08T12:38:43;13.33;;;10.70;;
10275;SDS011;5183;51.190;6.820;2024-03-08T12:41:12;11.90;;;10.17;;
10275;SDS011;5183;51.190;6.820;2024-03-08T12:43:41;12.20;;;10.73;;
10275;SDS011;5183;51.190;6.820;2024-03-08T12:46:08;11.63;;;10.23;;
10275;SDS011;5183;51.190;6.820;2024-03-08T12:48:35;12.40;;;10.37;;
10275;SDS011;5183;51.190;6.820;2024-03-08T12:51:05;11.83;;;10.63;;
10275;SDS011;5183;51.190;6.820;2024-03-08T12:53:32;12.07;;;9.97;;
10275;SDS011;5183;51.190;6.820;2024-03-08T12:55:59;13.43;;;10.83;;
10275;SDS011;5183;51.190;6.820;2024-03-08T12:58:26;12.70;;;10.00;;
10275;SDS011;5183;51.190;6.820;2024-03-08T13:00:54;12.93;;;10.80;;
10275;SDS011;5183;51.190;6.820;2024-03-08T13:03:21;12.20;;;10.50;;
10275;SDS011;5183;51.190;6.820;2024-03-08T13:05:48;11.73;;;10.30;;
10275;SDS011;5183;51.190;6.820;2024-03-08T13:08:15;11.30;;;10.10;;
10275;SDS011;5183;51.190;6.820;2024-03-08T13:10:43;12.17;;;10.87;;
10275;SDS011;5183;51.190;6.820;2024-03-08T13:13:10;12.10;;;10.23;;
10275;SDS011;5183;51.190;6.820;2024-03-08T13:15:40;12.07;;;10.57;;
10275;SDS011;5183;51.190;6.820;2024-03-08T13:18:09;11.80;;;9.67;;
10275;SDS011;5183;51.190;6.820;2024-03-08T13:20:36;11.13;;;10.00;;
10275;SDS011;5183;51.190;6.820;2024-03-08T13:23:03;11.30;;;9.67;;
10275;SDS011;5183;51.190;6.820;2024-03-08T13:25:30;12.50;;;10.23;;
10275;SDS011;5183;51.190;6.820;2024-03-08T13:27:57;11.73;;;9.83;;
10275;SDS011;5183;51.190;6.820;2024-03-08T13:30:25;12.40;;;10.13;;
10275;SDS011;5183;51.190;6.820;2024-03-08T13:32:52;11.67;;;10.10;;
10275;SDS011;5183;51.190;6.820;2024-03-08T13:35:21;11.93;;;9.77;;
10275;SDS011;5183;51.190;6.820;2024-03-08T13:37:52;11.93;;;10.60;;
10275;SDS011;5183;51.190;6.820;2024-03-08T13:40:19;11.23;;;9.63;;
10275;SDS011;5183;51.190;6.820;2024-03-08T13:42:46;12.23;;;9.60;;
10275;SDS011;5183;51.190;6.820;2024-03-08T13:45:14;10.43;;;9.33;;
10275;SDS011;5183;51.190;6.820;2024-03-08T13:47:43;12.23;;;10.30;;
10275;SDS011;5183;51.190;6.820;2024-03-08T13:50:11;11.80;;;9.90;;
10275;SDS011;5183;51.190;6.820;2024-03-08T13:52:42;10.97;;;9.23;;
10275;SDS011;5183;51.190;6.820;2024-03-08T13:55:09;11.07;;;9.90;;
10275;SDS011;5183;51.190;6.820;2024-03-08T13:57:39;12.57;;;9.93;;
10275;SDS011;5183;51.190;6.820;2024-03-08T14:00:07;11.20;;;9.87;;
10275;SDS011;5183;51.190;6.820;2024-03-08T14:02:34;12.43;;;9.97;;
10275;SDS011;5183;51.190;6.820;2024-03-08T14:05:01;10.30;;;9.20;;
10275;SDS011;5183;51.190;6.820;2024-03-08T14:07:28;11.43;;;9.90;;
10275;SDS011;5183;51.190;6.820;2024-03-08T14:09:56;12.93;;;10.27;;
10275;SDS011;5183;51.190;6.820;2024-03-08T14:12:24;10.83;;;9.50;;
10275;SDS011;5183;51.190;6.820;2024-03-08T14:14:51;11.10;;;9.53;;
10275;SDS011;5183;51.190;6.820;2024-03-08T14:17:18;11.47;;;9.50;;
10275;SDS011;5183;51.190;6.820;2024-03-08T14:19:46;11.43;;;9.60;;
10275;SDS011;5183;51.190;6.820;2024-03-08T14:22:13;11.90;;;9.23;;
10275;SDS011;5183;51.190;6.820;2024-03-08T14:24:40;10.70;;;9.27;;
10275;SDS011;5183;51.190;6.820;2024-03-08T14:27:08;13.80;;;10.13;;
10275;SDS011;5183;51.190;6.820;2024-03-08T14:29:37;12.40;;;10.95;;
10275;SDS011;5183;51.190;6.820;2024-03-08T14:32:04;12.05;;;10.77;;
10275;SDS011;5183;51.190;6.820;2024-03-08T14:34:32;12.47;;;11.03;;
10275;SDS011;5183;51.190;6.820;2024-03-08T14:36:59;11.40;;;10.20;;
10275;SDS011;5183;51.190;6.820;2024-03-08T14:39:30;12.90;;;10.37;;
10275;SDS011;5183;51.190;6.820;2024-03-08T14:41:58;13.83;;;11.30;;
10275;SDS011;5183;51.190;6.820;2024-03-08T14:44:28;13.50;;;10.83;;